sensor_id;sensor_type;location;lat;lon;timestamp;pressure;altitude;pressure_sealevel;temperature;humidity
50434;BME280;36361;38.954;-9.002;2024-01-10T00:00:56;101071.25;;;10.86;100.00
50434;BME280;36361;38.954;-9.002;2024-01-10T00:01:56;101072.31;;;10.85;100.00
50434;BME280;36361;38.954;-9.002;2024-01-10T00:02:57;101074.41;;;10.83;100.00
50434;BME280;36361;38.954;-9.002;2024-01-10T00:03:58;101079.03;;;10.89;100.00
50434;BME280;36361;38.954;-9.002;2024-01-10T00:04:59;101070.88;;;11.09;100.00
50434;BME280;36361;38.954;-9.002;2024-01-10T00:05:59;101074.84;;;11.06;100.00
50434;BME280;36361;38.954;-9.002;2024-01-10T00:07:00;101076.09;;;11.10;100.00
50434;BME280;36361;38.954;-9.002;2024-01-10T00:08:01;101077.34;;;10.88;100.00
50434;BME280;36361;38.954;-9.002;2024-01-10T00:09:02;101082.38;;;10.91;100.00
50434;BME280;36361;38.954;-9.002;2024-01-10T00:10:04;101085.75;;;11.06;100.00
50434;BME280;36361;38.954;-9.002;2024-01-10T00:11:05;101089.09;;;11.22;100.00
50434;BME280;36361;38.954;-9.002;2024-01-10T00:12:06;101082.41;;;10.98;100.00
50434;BME280;36361;38.954;-9.002;2024-01-10T00:13:06;101084.47;;;11.02;100.00
50434;BME280;36361;38.954;-9.002;2024-01-10T00:14:07;101082.81;;;11.01;100.00
50434;BME280;36361;38.954;-9.002;2024-01-10T00:15:08;101080.28;;;11.20;100.00
50434;BME280;36361;38.954;-9.002;2024-01-10T00:16:12;101077.78;;;11.25;100.00
50434;BME280;36361;38.954;-9.002;2024-01-10T00:17:13;101074.22;;;11.18;100.00
50434;BME280;36361;38.954;-9.002;2024-01-10T00:18:14;101070.22;;;11.20;100.00
50434;BME280;36361;38.954;-9.002;2024-01-10T00:19:15;101073.19;;;11.25;100.00
50434;BME280;36361;38.954;-9.002;2024-01-10T00:20:16;101074.63;;;11.28;100.00
50434;BME280;36361;38.954;-9.002;2024-01-10T00:21:17;101071.91;;;11.15;100.00
50434;BME280;36361;38.954;-9.002;2024-01-10T00:22:18;101075.91;;;11.19;100.00
50434;BME280;36361;38.954;-9.002;2024-01-10T00:23:19;101070.44;;;11.32;100.00
50434;BME280;36361;38.954;-9.002;2024-01-10T00:24:20;101066.03;;;11.31;100.00
50434;BME280;36361;38.954;-9.002;2024-01-10T00:25:21;101063.13;;;11.26;100.00
50434;BME280;36361;38.954;-9.002;2024-01-10T00:26:22;101066.47;;;11.28;100.00
50434;BME280;36361;38.954;-9.002;2024-01-10T00:27:22;101036.50;;;11.28;100.00
50434;BME280;36361;38.954;-9.002;2024-01-10T00:28:24;101055.97;;;11.38;100.00
50434;BME280;36361;38.954;-9.002;2024-01-10T00:29:25;101060.59;;;11.31;100.00
50434;BME280;36361;38.954;-9.002;2024-01-10T00:30:25;101058.94;;;11.17;100.00
50434;BME280;36361;38.954;-9.002;2024-01-10T00:31:26;101052.41;;;11.04;100.00
50434;BME280;36361;38.954;-9.002;2024-01-10T00:32:27;101052.63;;;11.03;100.00
50434;BME280;36361;38.954;-9.002;2024-01-10T00:33:28;101053.06;;;11.06;100.00
50434;BME280;36361;38.954;-9.002;2024-01-10T00:34:29;101050.75;;;11.03;100.00
50434;BME280;36361;38.954;-9.002;2024-01-10T00:35:31;101056.63;;;11.07;100.00
50434;BME280;36361;38.954;-9.002;2024-01-10T00:36:32;101051.59;;;11.17;100.00
50434;BME280;36361;38.954;-9.002;2024-01-10T00:37:32;101037.13;;;11.23;100.00
50434;BME280;36361;38.954;-9.002;2024-01-10T00:38:33;101041.31;;;11.26;100.00
50434;BME280;36361;38.954;-9.002;2024-01-10T00:39:34;101035.22;;;11.24;100.00
50434;BME280;36361;38.954;-9.002;2024-01-10T00:40:35;101044.25;;;11.11;100.00
50434;BME280;36361;38.954;-9.002;2024-01-10T00:41:36;101036.09;;;10.98;100.00
50434;BME280;36361;38.954;-9.002;2024-01-10T00:42:37;101044.47;;;10.83;100.00
50434;BME280;36361;38.954;-9.002;2024-01-10T00:43:37;101042.16;;;10.93;100.00
50434;BME280;36361;38.954;-9.002;2024-01-10T00:44:38;101037.13;;;10.90;100.00
50434;BME280;36361;38.954;-9.002;2024-01-10T00:45:39;101050.53;;;10.92;100.00
50434;BME280;36361;38.954;-9.002;2024-01-10T00:46:40;101047.81;;;10.85;100.00
50434;BME280;36361;38.954;-9.002;2024-01-10T00:47:41;101045.50;;;10.82;100.00
50434;BME280;36361;38.954;-9.002;2024-01-10T00:48:42;101049.25;;;10.88;100.00
50434;BME280;36361;38.954;-9.002;2024-01-10T00:49:43;101046.31;;;10.76;100.00
50434;BME280;36361;38.954;-9.002;2024-01-10T00:50:43;101050.09;;;10.75;100.00
50434;BME280;36361;38.954;-9.002;2024-01-10T00:51:44;101055.38;;;10.90;100.00
50434;BME280;36361;38.954;-9.002;2024-01-10T00:52:45;101054.28;;;10.84;100.00
50434;BME280;36361;38.954;-9.002;2024-01-10T00:53:46;101052.84;;;10.88;100.00
50434;BME280;36361;38.954;-9.002;2024-01-10T00:54:47;101056.59;;;10.87;100.00
50434;BME280;36361;38.954;-9.002;2024-01-10T00:55:48;101060.78;;;10.83;100.00
50434;BME280;36361;38.954;-9.002;2024-01-10T00:56:49;101053.22;;;10.78;100.00
50434;BME280;36361;38.954;-9.002;2024-01-10T00:57:51;101059.31;;;10.74;100.00
50434;BME280;36361;38.954;-9.002;2024-01-10T00:58:51;101061.41;;;10.72;100.00
50434;BME280;36361;38.954;-9.002;2024-01-10T00:59:56;101057.63;;;10.66;100.00
50434;BME280;36361;38.954;-9.002;2024-01-10T01:00:57;101059.75;;;10.84;100.00
50434;BME280;36361;38.954;-9.002;2024-01-10T01:01:58;101061.84;;;10.95;100.00
50434;BME280;36361;38.954;-9.002;2024-01-10T01:02:58;101050.94;;;10.95;100.00
50434;BME280;36361;38.954;-9.002;2024-01-10T01:03:59;101062.88;;;10.94;100.00
50434;BME280;36361;38.954;-9.002;2024-01-10T01:05:00;101062.50;;;10.97;100.00
50434;BME280;36361;38.954;-9.002;2024-01-10T01:06:01;101058.06;;;11.03;100.00
50434;BME280;36361;38.954;-9.002;2024-01-10T01:07:02;101062.50;;;11.17;100.00
50434;BME280;36361;38.954;-9.002;2024-01-10T01:08:03;101063.13;;;11.19;100.00
50434;BME280;36361;38.954;-9.002;2024-01-10T01:09:04;101065.41;;;11.09;100.00
50434;BME280;36361;38.954;-9.002;2024-01-10T01:10:05;101064.34;;;11.03;100.00
50434;BME280;36361;38.954;-9.002;2024-01-10T01:11:09;101073.59;;;11.16;100.00
50434;BME280;36361;38.954;-9.002;2024-01-10T01:12:10;101070.66;;;11.04;100.00
50434;BME280;36361;38.954;-9.002;2024-01-10T01:13:11;101068.56;;;10.99;100.00
50434;BME280;36361;38.954;-9.002;2024-01-10T01:14:12;101072.75;;;11.02;100.00
50434;BME280;36361;38.954;-9.002;2024-01-10T01:15:12;101072.53;;;11.03;100.00
50434;BME280;36361;38.954;-9.002;2024-01-10T01:16:13;101068.56;;;10.99;100.00
50434;BME280;36361;38.954;-9.002;2024-01-10T01:17:14;101070.66;;;11.17;100.00
50434;BME280;36361;38.954;-9.002;2024-01-10T01:18:15;101076.94;;;11.24;100.00
50434;BME280;36361;38.954;-9.002;2024-01-10T01:19:16;101072.75;;;11.22;100.00
50434;BME280;36361;38.954;-9.002;2024-01-10T01:20:16;101073.38;;;11.24;100.00
50434;BME280;36361;38.954;-9.002;2024-01-10T01:21:17;101065.41;;;11.29;100.00
50434;BME280;36361;38.954;-9.002;2024-01-10T01:22:18;101059.78;;;11.17;100.00
50434;BME280;36361;38.954;-9.002;2024-01-10T01:23:19;101064.38;;;11.10;100.00
50434;BME280;36361;38.954;-9.002;2024-01-10T01:24:20;101066.69;;;11.20;100.00
50434;BME280;36361;38.954;-9.002;2024-01-10T01:25:20;101065.19;;;11.24;100.00
50434;BME280;36361;38.954;-9.002;2024-01-10T01:26:21;101058.91;;;11.23;100.00
50434;BME280;36361;38.954;-9.002;2024-01-10T01:27:22;101065.41;;;11.09;100.00
50434;BME280;36361;38.954;-9.002;2024-01-10T01:28:23;101059.13;;;11.08;100.00
50434;BME280;36361;38.954;-9.002;2024-01-10T01:29:24;101063.50;;;10.96;100.00
50434;BME280;36361;38.954;-9.002;2024-01-10T01:30:25;101068.56;;;10.99;100.00
50434;BME280;36361;38.954;-9.002;2024-01-10T01:31:26;101059.56;;;10.99;100.00
50434;BME280;36361;38.954;-9.002;2024-01-10T01:32:27;101064.16;;;11.05;100.00
50434;BME280;36361;38.954;-9.002;2024-01-10T01:33:28;101066.66;;;10.93;100.00
50434;BME280;36361;38.954;-9.002;2024-01-10T01:34:28;101061.84;;;10.95;100.00
50434;BME280;36361;38.954;-9.002;2024-01-10T01:35:29;101071.28;;;11.13;100.00
50434;BME280;36361;38.954;-9.002;2024-01-10T01:36:30;101072.56;;;11.17;100.00
50434;BME280;36361;38.954;-9.002;2024-01-10T01:37:31;101068.13;;;11.29;100.00
50434;BME280;36361;38.954;-9.002;2024-01-10T01:38:32;101066.03;;;11.37;100.00
50434;BME280;36361;38.954;-9.002;2024-01-10T01:39:33;101064.78;;;11.14;100.00
50434;BME280;36361;38.954;-9.002;2024-01-10T01:40:33;101061.84;;;10.95;100.00
50434;BME280;36361;38.954;-9.002;2024-01-10T01:41:34;101058.06;;;10.83;100.00
50434;BME280;36361;38.954;-9.002;2024-01-10T01:42:35;101059.94;;;10.82;100.00
50434;BME280;36361;38.954;-9.002;2024-01-10T01:43:36;101062.03;;;10.87;100.00
50434;BME280;36361;38.954;-9.002;2024-01-10T01:44:37;101061.44;;;11.11;100.00
50434;BME280;36361;38.954;-9.002;2024-01-10T01:45:37;101051.38;;;11.05;100.00
50434;BME280;36361;38.954;-9.002;2024-01-10T01:46:38;101051.59;;;10.97;100.00
50434;BME280;36361;38.954;-9.002;2024-01-10T01:47:41;101057.66;;;10.99;100.00
50434;BME280;36361;38.954;-9.002;2024-01-10T01:48:42;101056.41;;;10.89;100.00
50434;BME280;36361;38.954;-9.002;2024-01-10T01:49:43;101063.53;;;10.90;100.00
50434;BME280;36361;38.954;-9.002;2024-01-10T01:50:45;101064.78;;;11.00;100.00
50434;BME280;36361;38.954;-9.002;2024-01-10T01:51:46;101069.59;;;11.05;100.00
50434;BME280;36361;38.954;-9.002;2024-01-10T01:52:47;101064.34;;;11.03;100.00
50434;BME280;36361;38.954;-9.002;2024-01-10T01:53:48;101067.31;;;11.02;100.00
50434;BME280;36361;38.954;-9.002;2024-01-10T01:54:50;101063.97;;;11.06;100.00
50434;BME280;36361;38.954;-9.002;2024-01-10T01:55:51;101066.03;;;11.04;100.00
50434;BME280;36361;38.954;-9.002;2024-01-10T01:56:53;101069.38;;;10.93;100.00
50434;BME280;36361;38.954;-9.002;2024-01-10T01:57:53;101073.16;;;11.05;100.00
50434;BME280;36361;38.954;-9.002;2024-01-10T01:58:55;101063.09;;;10.93;100.00
50434;BME280;36361;38.954;-9.002;2024-01-10T01:59:56;101064.34;;;11.03;100.00
50434;BME280;36361;38.954;-9.002;2024-01-10T02:00:58;101064.78;;;11.00;100.00
50434;BME280;36361;38.954;-9.002;2024-01-10T02:02:01;101061.44;;;10.98;100.00
50434;BME280;36361;38.954;-9.002;2024-01-10T02:03:05;101063.50;;;10.96;100.00
50434;BME280;36361;38.954;-9.002;2024-01-10T02:04:07;101062.47;;;11.04;100.00
50434;BME280;36361;38.954;-9.002;2024-01-10T02:05:08;101068.53;;;11.06;100.00
50434;BME280;36361;38.954;-9.002;2024-01-10T02:06:09;101071.91;;;11.21;100.00
50434;BME280;36361;38.954;-9.002;2024-01-10T02:07:10;101067.31;;;11.08;100.00
50434;BME280;36361;38.954;-9.002;2024-01-10T02:08:11;101073.19;;;11.19;100.00
50434;BME280;36361;38.954;-9.002;2024-01-10T02:09:12;101080.31;;;11.06;100.00
50434;BME280;36361;38.954;-9.002;2024-01-10T02:10:12;101081.13;;;11.14;100.00
50434;BME280;36361;38.954;-9.002;2024-01-10T02:11:13;101071.47;;;10.91;100.00
50434;BME280;36361;38.954;-9.002;2024-01-10T02:12:14;101078.19;;;10.95;100.00
50434;BME280;36361;38.954;-9.002;2024-01-10T02:13:16;101081.97;;;11.01;100.00
50434;BME280;36361;38.954;-9.002;2024-01-10T02:14:17;101079.84;;;10.96;100.00
50434;BME280;36361;38.954;-9.002;2024-01-10T02:15:18;101078.81;;;11.10;100.00
50434;BME280;36361;38.954;-9.002;2024-01-10T02:16:19;101086.13;;;10.97;100.00
50434;BME280;36361;38.954;-9.002;2024-01-10T02:17:20;101079.84;;;10.96;100.00
50434;BME280;36361;38.954;-9.002;2024-01-10T02:18:21;101077.34;;;10.95;100.00
50434;BME280;36361;38.954;-9.002;2024-01-10T02:19:23;101076.94;;;10.98;100.00
50434;BME280;36361;38.954;-9.002;2024-01-10T02:20:24;101077.34;;;10.88;100.00
50434;BME280;36361;38.954;-9.002;2024-01-10T02:21:25;101080.50;;;10.98;100.00
50434;BME280;36361;38.954;-9.002;2024-01-10T02:22:26;101082.56;;;10.96;100.00
50434;BME280;36361;38.954;-9.002;2024-01-10T02:23:27;101077.78;;;10.98;100.00
50434;BME280;36361;38.954;-9.002;2024-01-10T02:24:27;101084.91;;;10.99;100.00
50434;BME280;36361;38.954;-9.002;2024-01-10T02:25:28;101077.78;;;10.98;100.00
50434;BME280;36361;38.954;-9.002;2024-01-10T02:26:29;101087.19;;;10.82;100.00
50434;BME280;36361;38.954;-9.002;2024-01-10T02:27:30;101090.72;;;10.70;100.00
50434;BME280;36361;38.954;-9.002;2024-01-10T02:28:31;101086.09;;;10.64;100.00
50434;BME280;36361;38.954;-9.002;2024-01-10T02:29:33;101089.44;;;10.66;100.00
50434;BME280;36361;38.954;-9.002;2024-01-10T02:30:35;101081.94;;;10.74;100.00
50434;BME280;36361;38.954;-9.002;2024-01-10T02:31:36;101080.66;;;10.64;100.00
50434;BME280;36361;38.954;-9.002;2024-01-10T02:32:36;101084.00;;;10.66;100.00
50434;BME280;36361;38.954;-9.002;2024-01-10T02:33:37;101094.47;;;10.69;100.00
50434;BME280;36361;38.954;-9.002;2024-01-10T02:34:38;101083.63;;;10.89;100.00
50434;BME280;36361;38.954;-9.002;2024-01-10T02:35:39;101093.22;;;10.78;100.00
50434;BME280;36361;38.954;-9.002;2024-01-10T02:36:40;101086.53;;;10.87;100.00
50434;BME280;36361;38.954;-9.002;2024-01-10T02:37:40;101098.50;;;10.79;100.00
50434;BME280;36361;38.954;-9.002;2024-01-10T02:38:41;101099.97;;;10.82;100.00
50434;BME280;36361;38.954;-9.002;2024-01-10T02:39:42;101094.69;;;10.74;100.00
50434;BME280;36361;38.954;-9.002;2024-01-10T02:40:43;101094.50;;;10.82;100.00
50434;BME280;36361;38.954;-9.002;2024-01-10T02:41:44;101091.59;;;11.03;100.00
50434;BME280;36361;38.954;-9.002;2024-01-10T02:42:44;101091.59;;;10.97;100.00
50434;BME280;36361;38.954;-9.002;2024-01-10T02:43:45;101094.09;;;10.85;100.00
50434;BME280;36361;38.954;-9.002;2024-01-10T02:44:46;101099.56;;;10.92;100.00
50434;BME280;36361;38.954;-9.002;2024-01-10T02:45:47;101094.13;;;10.98;100.00
50434;BME280;36361;38.954;-9.002;2024-01-10T02:46:47;101102.91;;;11.00;100.00
50434;BME280;36361;38.954;-9.002;2024-01-10T02:47:48;101099.56;;;10.92;100.00
50434;BME280;36361;38.954;-9.002;2024-01-10T02:48:49;101106.69;;;11.13;100.00
50434;BME280;36361;38.954;-9.002;2024-01-10T02:49:50;101100.41;;;11.12;100.00
50434;BME280;36361;38.954;-9.002;2024-01-10T02:50:51;101099.97;;;11.02;100.00
50434;BME280;36361;38.954;-9.002;2024-01-10T02:51:52;101104.81;;;11.06;100.00
50434;BME280;36361;38.954;-9.002;2024-01-10T02:52:52;101106.88;;;11.04;100.00
50434;BME280;36361;38.954;-9.002;2024-01-10T02:53:53;101103.53;;;10.96;100.00
50434;BME280;36361;38.954;-9.002;2024-01-10T02:54:54;101101.88;;;11.15;100.00
50434;BME280;36361;38.954;-9.002;2024-01-10T02:55:55;101106.25;;;11.02;100.00
50434;BME280;36361;38.954;-9.002;2024-01-10T02:56:55;101102.09;;;11.06;100.00
50434;BME280;36361;38.954;-9.002;2024-01-10T02:57:56;101101.44;;;10.91;100.00
50434;BME280;36361;38.954;-9.002;2024-01-10T02:58:57;101109.59;;;11.04;100.00
50434;BME280;36361;38.954;-9.002;2024-01-10T02:59:57;101107.94;;;10.90;100.00
50434;BME280;36361;38.954;-9.002;2024-01-10T03:00:58;101102.22;;;10.78;100.00
50434;BME280;36361;38.954;-9.002;2024-01-10T03:01:59;101099.75;;;10.90;100.00
50434;BME280;36361;38.954;-9.002;2024-01-10T03:03:00;101082.19;;;10.99;100.00
50434;BME280;36361;38.954;-9.002;2024-01-10T03:04:01;101096.00;;;11.11;100.00
50434;BME280;36361;38.954;-9.002;2024-01-10T03:05:02;101091.19;;;11.13;100.00
50434;BME280;36361;38.954;-9.002;2024-01-10T03:06:02;101091.59;;;10.90;100.00
50434;BME280;36361;38.954;-9.002;2024-01-10T03:07:03;101093.03;;;10.86;100.00
50434;BME280;36361;38.954;-9.002;2024-01-10T03:08:04;101087.81;;;10.91;100.00
50434;BME280;36361;38.954;-9.002;2024-01-10T03:09:07;101090.34;;;10.99;100.00
50434;BME280;36361;38.954;-9.002;2024-01-10T03:10:08;101097.84;;;10.84;100.00
50434;BME280;36361;38.954;-9.002;2024-01-10T03:11:09;101102.03;;;10.73;100.00
50434;BME280;36361;38.954;-9.002;2024-01-10T03:12:10;101103.47;;;10.69;100.00
50434;BME280;36361;38.954;-9.002;2024-01-10T03:13:11;101101.38;;;10.65;100.00
50434;BME280;36361;38.954;-9.002;2024-01-10T03:14:13;101098.69;;;10.71;100.00
50434;BME280;36361;38.954;-9.002;2024-01-10T03:15:13;101101.00;;;10.81;100.00
50434;BME280;36361;38.954;-9.002;2024-01-10T03:16:14;101101.63;;;10.70;100.00
50434;BME280;36361;38.954;-9.002;2024-01-10T03:17:15;101099.97;;;10.89;100.00
50434;BME280;36361;38.954;-9.002;2024-01-10T03:18:16;101087.78;;;10.78;100.00
50434;BME280;36361;38.954;-9.002;2024-01-10T03:19:17;101092.41;;;10.71;100.00
50434;BME280;36361;38.954;-9.002;2024-01-10T03:20:18;101096.56;;;10.67;100.00
50434;BME280;36361;38.954;-9.002;2024-01-10T03:21:18;101091.97;;;10.74;100.00
50434;BME280;36361;38.954;-9.002;2024-01-10T03:22:25;101095.69;;;10.60;100.00
50434;BME280;36361;38.954;-9.002;2024-01-10T03:23:26;101093.41;;;10.57;100.00
50434;BME280;36361;38.954;-9.002;2024-01-10T03:24:28;101096.13;;;10.57;100.00
50434;BME280;36361;38.954;-9.002;2024-01-10T03:25:28;101093.16;;;10.45;100.00
50434;BME280;36361;38.954;-9.002;2024-01-10T03:26:29;101086.69;;;10.46;100.00
50434;BME280;36361;38.954;-9.002;2024-01-10T03:27:33;101096.53;;;10.53;100.00
50434;BME280;36361;38.954;-9.002;2024-01-10T03:28:33;101090.25;;;10.60;100.00
50434;BME280;36361;38.954;-9.002;2024-01-10T03:29:34;101089.84;;;10.56;100.00
50434;BME280;36361;38.954;-9.002;2024-01-10T03:30:35;101093.66;;;10.75;100.00
50434;BME280;36361;38.954;-9.002;2024-01-10T03:31:36;101089.03;;;10.69;100.00
50434;BME280;36361;38.954;-9.002;2024-01-10T03:32:38;101091.97;;;10.74;100.00
50434;BME280;36361;38.954;-9.002;2024-01-10T03:33:38;101095.78;;;10.79;100.00
50434;BME280;36361;38.954;-9.002;2024-01-10T03:34:41;101090.31;;;10.86;100.00
50434;BME280;36361;38.954;-9.002;2024-01-10T03:35:42;101094.06;;;10.72;100.00
50434;BME280;36361;38.954;-9.002;2024-01-10T03:36:43;101093.22;;;10.65;100.00
50434;BME280;36361;38.954;-9.002;2024-01-10T03:37:44;101094.47;;;10.62;100.00
50434;BME280;36361;38.954;-9.002;2024-01-10T03:38:45;101088.84;;;10.83;100.00
50434;BME280;36361;38.954;-9.002;2024-01-10T03:39:45;101090.75;;;10.83;100.00
50434;BME280;36361;38.954;-9.002;2024-01-10T03:40:46;101086.13;;;10.83;100.00
50434;BME280;36361;38.954;-9.002;2024-01-10T03:41:47;101087.59;;;10.73;100.00
50434;BME280;36361;38.954;-9.002;2024-01-10T03:42:48;101090.72;;;10.63;100.00
50434;BME280;36361;38.954;-9.002;2024-01-10T03:43:49;101090.31;;;10.73;100.00
50434;BME280;36361;38.954;-9.002;2024-01-10T03:44:51;101083.81;;;10.74;100.00
50434;BME280;36361;38.954;-9.002;2024-01-10T03:45:51;101091.59;;;10.90;100.00
50434;BME280;36361;38.954;-9.002;2024-01-10T03:46:52;101089.91;;;10.82;100.00
50434;BME280;36361;38.954;-9.002;2024-01-10T03:47:53;101091.59;;;10.90;100.00
50434;BME280;36361;38.954;-9.002;2024-01-10T03:48:54;101081.75;;;10.82;100.00
50434;BME280;36361;38.954;-9.002;2024-01-10T03:49:55;101080.69;;;10.90;100.00
50434;BME280;36361;38.954;-9.002;2024-01-10T03:50:55;101086.13;;;10.77;100.00
50434;BME280;36361;38.954;-9.002;2024-01-10T03:51:57;101091.56;;;10.83;100.00
50434;BME280;36361;38.954;-9.002;2024-01-10T03:52:57;101094.09;;;10.85;100.00
50434;BME280;36361;38.954;-9.002;2024-01-10T03:53:58;101094.72;;;10.80;100.00
50434;BME280;36361;38.954;-9.002;2024-01-10T03:54:59;101094.50;;;10.75;100.00
50434;BME280;36361;38.954;-9.002;2024-01-10T03:56:04;101109.31;;;10.60;100.00
50434;BME280;36361;38.954;-9.002;2024-01-10T03:57:05;101106.16;;;10.56;100.00
50434;BME280;36361;38.954;-9.002;2024-01-10T03:58:05;101103.59;;;10.41;100.00
50434;BME280;36361;38.954;-9.002;2024-01-10T03:59:06;101096.94;;;10.50;100.00
50434;BME280;36361;38.954;-9.002;2024-01-10T04:00:07;101106.59;;;10.60;100.00
50434;BME280;36361;38.954;-9.002;2024-01-10T04:01:09;101105.34;;;10.56;100.00
50434;BME280;36361;38.954;-9.002;2024-01-10T04:02:09;101101.38;;;10.65;100.00
50434;BME280;36361;38.954;-9.002;2024-01-10T04:03:10;101103.91;;;10.73;100.00
50434;BME280;36361;38.954;-9.002;2024-01-10T04:04:11;101102.22;;;10.78;100.00
50434;BME280;36361;38.954;-9.002;2024-01-10T04:05:12;101098.28;;;10.81;100.00
50434;BME280;36361;38.954;-9.002;2024-01-10T04:06:14;101089.03;;;10.69;100.00
50434;BME280;36361;38.954;-9.002;2024-01-10T04:07:14;101098.66;;;10.65;100.00
50434;BME280;36361;38.954;-9.002;2024-01-10T04:08:15;101091.91;;;10.47;100.00
50434;BME280;36361;38.954;-9.002;2024-01-10T04:09:16;101112.88;;;10.53;100.00
50434;BME280;36361;38.954;-9.002;2024-01-10T04:10:17;101106.59;;;10.60;100.00
50434;BME280;36361;38.954;-9.002;2024-01-10T04:11:18;101101.75;;;10.48;100.00
50434;BME280;36361;38.954;-9.002;2024-01-10T04:12:19;101109.50;;;10.45;100.00
50434;BME280;36361;38.954;-9.002;2024-01-10T04:13:20;101098.16;;;10.41;100.00
50434;BME280;36361;38.954;-9.002;2024-01-10T04:14:21;101101.56;;;10.57;100.00
50434;BME280;36361;38.954;-9.002;2024-01-10T04:15:22;101100.31;;;10.52;100.00
50434;BME280;36361;38.954;-9.002;2024-01-10T04:16:23;101100.34;;;10.72;100.00
50434;BME280;36361;38.954;-9.002;2024-01-10T04:17:23;101094.69;;;10.67;100.00
50434;BME280;36361;38.954;-9.002;2024-01-10T04:18:24;101097.78;;;10.58;100.00
50434;BME280;36361;38.954;-9.002;2024-01-10T04:19:25;101094.81;;;10.39;100.00
50434;BME280;36361;38.954;-9.002;2024-01-10T04:20:26;101101.09;;;10.40;100.00
50434;BME280;36361;38.954;-9.002;2024-01-10T04:21:27;101096.47;;;10.34;100.00
50434;BME280;36361;38.954;-9.002;2024-01-10T04:22:27;101097.31;;;10.34;100.00
50434;BME280;36361;38.954;-9.002;2024-01-10T04:23:28;101099.00;;;10.35;100.00
50434;BME280;36361;38.954;-9.002;2024-01-10T04:24:31;101096.03;;;10.30;100.00
50434;BME280;36361;38.954;-9.002;2024-01-10T04:25:31;101093.19;;;10.51;100.00
50434;BME280;36361;38.954;-9.002;2024-01-10T04:26:32;101097.16;;;10.56;100.00
50434;BME280;36361;38.954;-9.002;2024-01-10T04:27:33;101100.06;;;10.47;100.00
50434;BME280;36361;38.954;-9.002;2024-01-10T04:28:34;101087.69;;;10.38;100.00
50434;BME280;36361;38.954;-9.002;2024-01-10T04:29:35;101100.22;;;10.26;100.00
50434;BME280;36361;38.954;-9.002;2024-01-10T04:30:35;101095.97;;;10.17;100.00
50434;BME280;36361;38.954;-9.002;2024-01-10T04:31:36;101098.16;;;10.35;100.00
50434;BME280;36361;38.954;-9.002;2024-01-10T04:32:37;101106.06;;;10.30;100.00
50434;BME280;36361;38.954;-9.002;2024-01-10T04:33:38;101099.66;;;10.50;100.00
50434;BME280;36361;38.954;-9.002;2024-01-10T04:34:39;101096.47;;;10.40;100.00
50434;BME280;36361;38.954;-9.002;2024-01-10T04:35:40;101103.22;;;10.44;100.00
50434;BME280;36361;38.954;-9.002;2024-01-10T04:36:41;101096.06;;;10.37;100.00
50434;BME280;36361;38.954;-9.002;2024-01-10T04:37:41;101104.00;;;10.38;100.00
50434;BME280;36361;38.954;-9.002;2024-01-10T04:38:42;101102.34;;;10.37;100.00
50434;BME280;36361;38.954;-9.002;2024-01-10T04:39:43;101102.75;;;10.34;100.00
50434;BME280;36361;38.954;-9.002;2024-01-10T04:40:44;101100.72;;;10.15;100.00
50434;BME280;36361;38.954;-9.002;2024-01-10T04:41:45;101104.81;;;10.25;100.00
50434;BME280;36361;38.954;-9.002;2024-01-10T04:42:46;101106.75;;;10.38;100.00
50434;BME280;36361;38.954;-9.002;2024-01-10T04:43:46;101107.38;;;10.40;100.00
50434;BME280;36361;38.954;-9.002;2024-01-10T04:44:47;101107.78;;;10.37;100.00
50434;BME280;36361;38.954;-9.002;2024-01-10T04:45:48;101098.81;;;10.43;100.00
50434;BME280;36361;38.954;-9.002;2024-01-10T04:46:49;101111.78;;;10.48;100.00
50434;BME280;36361;38.954;-9.002;2024-01-10T04:47:49;101102.16;;;10.45;100.00
50434;BME280;36361;38.954;-9.002;2024-01-10T04:48:50;101100.34;;;10.66;100.00
50434;BME280;36361;38.954;-9.002;2024-01-10T04:49:51;101099.47;;;10.59;100.00
50434;BME280;36361;38.954;-9.002;2024-01-10T04:50:52;101103.88;;;10.60;100.00
50434;BME280;36361;38.954;-9.002;2024-01-10T04:51:53;101096.56;;;10.67;100.00
50434;BME280;36361;38.954;-9.002;2024-01-10T04:52:53;101092.75;;;10.48;100.00
50434;BME280;36361;38.954;-9.002;2024-01-10T04:53:54;101094.41;;;10.49;100.00
50434;BME280;36361;38.954;-9.002;2024-01-10T04:54:56;101096.34;;;10.62;100.00
50434;BME280;36361;38.954;-9.002;2024-01-10T04:55:56;101099.72;;;10.64;100.00
50434;BME280;36361;38.954;-9.002;2024-01-10T04:56:58;101092.16;;;10.52;100.00
50434;BME280;36361;38.954;-9.002;2024-01-10T04:58:00;101101.81;;;10.62;100.00
50434;BME280;36361;38.954;-9.002;2024-01-10T04:59:01;101095.72;;;10.66;100.00
50434;BME280;36361;38.954;-9.002;2024-01-10T05:00:03;101100.75;;;10.63;100.00
50434;BME280;36361;38.954;-9.002;2024-01-10T05:01:05;101102.44;;;10.64;100.00
50434;BME280;36361;38.954;-9.002;2024-01-10T05:02:06;101100.34;;;10.66;100.00
50434;BME280;36361;38.954;-9.002;2024-01-10T05:03:07;101102.41;;;10.57;100.00
50434;BME280;36361;38.954;-9.002;2024-01-10T05:04:08;101099.91;;;10.62;100.00
50434;BME280;36361;38.954;-9.002;2024-01-10T05:05:09;101098.41;;;10.60;100.00
50434;BME280;36361;38.954;-9.002;2024-01-10T05:06:10;101091.50;;;10.44;100.00
50434;BME280;36361;38.954;-9.002;2024-01-10T05:07:11;101101.53;;;10.43;100.00
50434;BME280;36361;38.954;-9.002;2024-01-10T05:08:12;101107.81;;;10.44;100.00
50434;BME280;36361;38.954;-9.002;2024-01-10T05:09:12;101103.97;;;10.32;100.00
50434;BME280;36361;38.954;-9.002;2024-01-10T05:10:14;101102.38;;;10.44;100.00
50434;BME280;36361;38.954;-9.002;2024-01-10T05:11:15;101106.97;;;10.50;100.00